sensor_id;sensor_type;location;lat;lon;timestamp;P1;durP1;ratioP1;P2;durP2;ratioP2
48588;SDS011;34369;51.174;6.738;2023-01-23T00:01:05;49.23;;;45.53;;
48588;SDS011;34369;51.174;6.738;2023-01-23T00:03:42;52.03;;;48.03;;
48588;SDS011;34369;51.174;6.738;2023-01-23T00:06:15;53.03;;;48.93;;
48588;SDS011;34369;51.174;6.738;2023-01-23T00:08:48;51.03;;;47.23;;
48588;SDS011;34369;51.174;6.738;2023-01-23T00:11:22;50.30;;;46.50;;
48588;SDS011;34369;51.174;6.738;2023-01-23T00:13:57;52.97;;;48.97;;
48588;SDS011;34369;51.174;6.738;2023-01-23T00:16:31;52.10;;;47.93;;
48588;SDS011;34369;51.174;6.738;2023-01-23T00:19:03;52.33;;;48.53;;
48588;SDS011;34369;51.174;6.738;2023-01-23T00:21:35;52.80;;;48.87;;
48588;SDS011;34369;51.174;6.738;2023-01-23T00:24:10;54.77;;;50.60;;
48588;SDS011;34369;51.174;6.738;2023-01-23T00:26:42;52.23;;;48.33;;
48588;SDS011;34369;51.174;6.738;2023-01-23T00:29:14;50.17;;;46.37;;
48588;SDS011;34369;51.174;6.738;2023-01-23T00:31:46;51.27;;;47.40;;
48588;SDS011;34369;51.174;6.738;2023-01-23T00:34:18;51.20;;;47.30;;
48588;SDS011;34369;51.174;6.738;2023-01-23T00:36:50;54.57;;;50.47;;
48588;SDS011;34369;51.174;6.738;2023-01-23T00:39:23;52.53;;;48.63;;
48588;SDS011;34369;51.174;6.738;2023-01-23T00:41:55;53.03;;;49.10;;
48588;SDS011;34369;51.174;6.738;2023-01-23T00:44:27;51.20;;;47.33;;
48588;SDS011;34369;51.174;6.738;2023-01-23T00:46:59;49.17;;;45.57;;
48588;SDS011;34369;51.174;6.738;2023-01-23T00:49:31;49.90;;;46.00;;
48588;SDS011;34369;51.174;6.738;2023-01-23T00:52:03;50.53;;;46.83;;
48588;SDS011;34369;51.174;6.738;2023-01-23T00:54:37;51.27;;;47.30;;
48588;SDS011;34369;51.174;6.738;2023-01-23T00:57:08;52.47;;;48.47;;
48588;SDS011;34369;51.174;6.738;2023-01-23T00:59:41;52.90;;;49.00;;
48588;SDS011;34369;51.174;6.738;2023-01-23T01:02:12;53.53;;;49.53;;
48588;SDS011;34369;51.174;6.738;2023-01-23T01:04:44;51.00;;;47.20;;
48588;SDS011;34369;51.174;6.738;2023-01-23T01:07:16;52.77;;;48.77;;
48588;SDS011;34369;51.174;6.738;2023-01-23T01:09:50;51.10;;;47.30;;
48588;SDS011;34369;51.174;6.738;2023-01-23T01:12:22;48.73;;;45.17;;
48588;SDS011;34369;51.174;6.738;2023-01-23T01:14:54;48.37;;;44.77;;
48588;SDS011;34369;51.174;6.738;2023-01-23T01:17:26;51.27;;;47.47;;
48588;SDS011;34369;51.174;6.738;2023-01-23T01:20:00;49.80;;;46.10;;
48588;SDS011;34369;51.174;6.738;2023-01-23T01:22:33;48.10;;;44.50;;
48588;SDS011;34369;51.174;6.738;2023-01-23T01:25:07;51.73;;;47.93;;
48588;SDS011;34369;51.174;6.738;2023-01-23T01:27:39;47.40;;;43.90;;
48588;SDS011;34369;51.174;6.738;2023-01-23T01:30:12;48.70;;;45.27;;
48588;SDS011;34369;51.174;6.738;2023-01-23T01:32:45;50.80;;;47.10;;
48588;SDS011;34369;51.174;6.738;2023-01-23T01:35:17;51.53;;;47.53;;
48588;SDS011;34369;51.174;6.738;2023-01-23T01:37:50;48.30;;;44.80;;
48588;SDS011;34369;51.174;6.738;2023-01-23T01:40:24;52.43;;;48.77;;
48588;SDS011;34369;51.174;6.738;2023-01-23T01:42:58;50.50;;;46.90;;
48588;SDS011;34369;51.174;6.738;2023-01-23T01:48:40;49.03;;;45.53;;
48588;SDS011;34369;51.174;6.738;2023-01-23T01:51:21;48.60;;;45.27;;
48588;SDS011;34369;51.174;6.738;2023-01-23T01:53:59;49.73;;;46.17;;
48588;SDS011;34369;51.174;6.738;2023-01-23T01:56:40;49.73;;;46.33;;
48588;SDS011;34369;51.174;6.738;2023-01-23T01:59:15;48.10;;;44.60;;
48588;SDS011;34369;51.174;6.738;2023-01-23T02:01:50;48.03;;;44.63;;
48588;SDS011;34369;51.174;6.738;2023-01-23T02:04:27;46.57;;;43.37;;
48588;SDS011;34369;51.174;6.738;2023-01-23T02:06:59;48.27;;;44.87;;
48588;SDS011;34369;51.174;6.738;2023-01-23T02:09:36;49.03;;;45.53;;
48588;SDS011;34369;51.174;6.738;2023-01-23T02:12:10;50.37;;;46.67;;
48588;SDS011;34369;51.174;6.738;2023-01-23T02:14:42;48.37;;;44.97;;
48588;SDS011;34369;51.174;6.738;2023-01-23T02:17:14;45.60;;;42.30;;
48588;SDS011;34369;51.174;6.738;2023-01-23T02:19:48;50.73;;;47.03;;
48588;SDS011;34369;51.174;6.738;2023-01-23T02:22:29;50.80;;;47.10;;
48588;SDS011;34369;51.174;6.738;2023-01-23T02:25:14;49.90;;;46.30;;
48588;SDS011;34369;51.174;6.738;2023-01-23T02:28:04;49.93;;;46.30;;
48588;SDS011;34369;51.174;6.738;2023-01-23T02:30:37;51.87;;;48.07;;
48588;SDS011;34369;51.174;6.738;2023-01-23T02:33:10;50.40;;;46.60;;
48588;SDS011;34369;51.174;6.738;2023-01-23T02:36:15;50.83;;;47.10;;
48588;SDS011;34369;51.174;6.738;2023-01-23T02:38:53;51.07;;;47.13;;
48588;SDS011;34369;51.174;6.738;2023-01-23T02:41:34;50.20;;;46.37;;
48588;SDS011;34369;51.174;6.738;2023-01-23T02:44:11;50.47;;;46.67;;
48588;SDS011;34369;51.174;6.738;2023-01-23T02:46:47;52.27;;;48.40;;
48588;SDS011;34369;51.174;6.738;2023-01-23T02:49:20;54.30;;;50.30;;
48588;SDS011;34369;51.174;6.738;2023-01-23T02:51:53;50.33;;;46.43;;
48588;SDS011;34369;51.174;6.738;2023-01-23T02:54:26;51.37;;;47.50;;
48588;SDS011;34369;51.174;6.738;2023-01-23T02:56:58;49.23;;;45.63;;
48588;SDS011;34369;51.174;6.738;2023-01-23T02:59:31;51.67;;;47.83;;
48588;SDS011;34369;51.174;6.738;2023-01-23T03:02:20;51.73;;;47.83;;
48588;SDS011;34369;51.174;6.738;2023-01-23T03:04:52;50.37;;;46.77;;
48588;SDS011;34369;51.174;6.738;2023-01-23T03:07:24;51.10;;;47.40;;
48588;SDS011;34369;51.174;6.738;2023-01-23T03:09:56;52.50;;;48.67;;
48588;SDS011;34369;51.174;6.738;2023-01-23T03:12:28;52.73;;;48.87;;
48588;SDS011;34369;51.174;6.738;2023-01-23T03:15:01;50.63;;;46.93;;
48588;SDS011;34369;51.174;6.738;2023-01-23T03:17:35;53.93;;;50.10;;
48588;SDS011;34369;51.174;6.738;2023-01-23T03:20:07;54.97;;;51.00;;
48588;SDS011;34369;51.174;6.738;2023-01-23T03:22:40;52.17;;;48.30;;
48588;SDS011;34369;51.174;6.738;2023-01-23T03:25:13;50.87;;;47.27;;
48588;SDS011;34369;51.174;6.738;2023-01-23T03:27:45;49.70;;;46.07;;
48588;SDS011;34369;51.174;6.738;2023-01-23T03:30:19;51.73;;;48.03;;
48588;SDS011;34369;51.174;6.738;2023-01-23T03:32:51;50.73;;;47.13;;
48588;SDS011;34369;51.174;6.738;2023-01-23T03:35:23;52.37;;;48.57;;
48588;SDS011;34369;51.174;6.738;2023-01-23T03:37:54;47.63;;;44.17;;
48588;SDS011;34369;51.174;6.738;2023-01-23T03:40:26;51.50;;;47.77;;
48588;SDS011;34369;51.174;6.738;2023-01-23T03:43:16;50.07;;;46.43;;
48588;SDS011;34369;51.174;6.738;2023-01-23T03:45:50;51.50;;;47.93;;
48588;SDS011;34369;51.174;6.738;2023-01-23T03:48:22;51.63;;;48.00;;
48588;SDS011;34369;51.174;6.738;2023-01-23T03:50:54;51.50;;;47.60;;
48588;SDS011;34369;51.174;6.738;2023-01-23T03:53:26;56.77;;;52.80;;
48588;SDS011;34369;51.174;6.738;2023-01-23T03:55:58;52.37;;;48.47;;
48588;SDS011;34369;51.174;6.738;2023-01-23T03:58:30;53.23;;;49.43;;
48588;SDS011;34369;51.174;6.738;2023-01-23T04:01:05;51.77;;;47.97;;
48588;SDS011;34369;51.174;6.738;2023-01-23T04:03:38;53.63;;;49.87;;
48588;SDS011;34369;51.174;6.738;2023-01-23T04:06:10;49.50;;;46.00;;
48588;SDS011;34369;51.174;6.738;2023-01-23T04:08:42;53.50;;;49.90;;
48588;SDS011;34369;51.174;6.738;2023-01-23T04:11:14;53.17;;;49.57;;
48588;SDS011;34369;51.174;6.738;2023-01-23T04:13:46;52.23;;;48.67;;
48588;SDS011;34369;51.174;6.738;2023-01-23T04:16:19;52.77;;;49.17;;
48588;SDS011;34369;51.174;6.738;2023-01-23T04:18:52;52.80;;;49.20;;
48588;SDS011;34369;51.174;6.738;2023-01-23T04:21:25;51.17;;;47.67;;
48588;SDS011;34369;51.174;6.738;2023-01-23T04:23:57;48.90;;;45.43;;
48588;SDS011;34369;51.174;6.738;2023-01-23T04:26:29;51.37;;;47.87;;
48588;SDS011;34369;51.174;6.738;2023-01-23T04:29:03;51.23;;;47.73;;
48588;SDS011;34369;51.174;6.738;2023-01-23T04:31:37;48.87;;;45.47;;
48588;SDS011;34369;51.174;6.738;2023-01-23T04:34:09;46.90;;;43.57;;
48588;SDS011;34369;51.174;6.738;2023-01-23T04:36:41;47.67;;;44.33;;
48588;SDS011;34369;51.174;6.738;2023-01-23T04:39:12;48.53;;;45.23;;
48588;SDS011;34369;51.174;6.738;2023-01-23T04:41:44;48.03;;;44.73;;
48588;SDS011;34369;51.174;6.738;2023-01-23T04:44:16;50.57;;;47.07;;
48588;SDS011;34369;51.174;6.738;2023-01-23T04:46:53;48.23;;;44.93;;
48588;SDS011;34369;51.174;6.738;2023-01-23T04:49:25;47.03;;;43.77;;
48588;SDS011;34369;51.174;6.738;2023-01-23T04:51:57;48.80;;;45.50;;
48588;SDS011;34369;51.174;6.738;2023-01-23T04:54:31;49.17;;;45.77;;
48588;SDS011;34369;51.174;6.738;2023-01-23T04:57:09;47.97;;;44.70;;
48588;SDS011;34369;51.174;6.738;2023-01-23T04:59:41;47.90;;;44.60;;
48588;SDS011;34369;51.174;6.738;2023-01-23T05:02:15;48.30;;;45.00;;
48588;SDS011;34369;51.174;6.738;2023-01-23T05:04:47;50.00;;;46.47;;
48588;SDS011;34369;51.174;6.738;2023-01-23T05:07:19;46.47;;;43.20;;
48588;SDS011;34369;51.174;6.738;2023-01-23T05:09:51;50.70;;;47.10;;
48588;SDS011;34369;51.174;6.738;2023-01-23T05:12:23;47.47;;;44.07;;
48588;SDS011;34369;51.174;6.738;2023-01-23T05:14:55;49.93;;;46.33;;
48588;SDS011;34369;51.174;6.738;2023-01-23T05:17:29;48.80;;;45.30;;
48588;SDS011;34369;51.174;6.738;2023-01-23T05:20:01;48.83;;;45.43;;
48588;SDS011;34369;51.174;6.738;2023-01-23T05:22:33;49.83;;;46.33;;
48588;SDS011;34369;51.174;6.738;2023-01-23T05:25:06;48.40;;;45.03;;
48588;SDS011;34369;51.174;6.738;2023-01-23T05:27:38;49.50;;;45.93;;
48588;SDS011;34369;51.174;6.738;2023-01-23T05:30:10;48.47;;;44.97;;
48588;SDS011;34369;51.174;6.738;2023-01-23T05:32:44;50.60;;;47.10;;
48588;SDS011;34369;51.174;6.738;2023-01-23T05:35:16;49.83;;;46.43;;
48588;SDS011;34369;51.174;6.738;2023-01-23T05:37:48;47.93;;;44.53;;
48588;SDS011;34369;51.174;6.738;2023-01-23T05:40:21;49.50;;;46.07;;
48588;SDS011;34369;51.174;6.738;2023-01-23T05:42:54;48.43;;;45.13;;
48588;SDS011;34369;51.174;6.738;2023-01-23T05:45:26;46.67;;;43.47;;
48588;SDS011;34369;51.174;6.738;2023-01-23T05:47:59;47.40;;;44.10;;
48588;SDS011;34369;51.174;6.738;2023-01-23T05:50:31;48.27;;;44.97;;
48588;SDS011;34369;51.174;6.738;2023-01-23T05:53:03;47.40;;;44.10;;
48588;SDS011;34369;51.174;6.738;2023-01-23T05:55:36;49.00;;;45.70;;
48588;SDS011;34369;51.174;6.738;2023-01-23T05:58:08;46.60;;;43.37;;
48588;SDS011;34369;51.174;6.738;2023-01-23T06:00:40;47.90;;;44.57;;
48588;SDS011;34369;51.174;6.738;2023-01-23T06:03:14;48.23;;;44.93;;
48588;SDS011;34369;51.174;6.738;2023-01-23T06:05:46;48.07;;;44.87;;
48588;SDS011;34369;51.174;6.738;2023-01-23T06:08:18;50.00;;;46.70;;
48588;SDS011;34369;51.174;6.738;2023-01-23T06:10:50;47.67;;;44.37;;
48588;SDS011;34369;51.174;6.738;2023-01-23T06:13:23;45.70;;;42.47;;
48588;SDS011;34369;51.174;6.738;2023-01-23T06:15:56;49.03;;;45.73;;
48588;SDS011;34369;51.174;6.738;2023-01-23T06:18:29;45.97;;;42.90;;
48588;SDS011;34369;51.174;6.738;2023-01-23T06:21:04;48.83;;;45.42;;
48588;SDS011;34369;51.174;6.738;2023-01-23T06:23:36;46.07;;;42.80;;
48588;SDS011;34369;51.174;6.738;2023-01-23T06:26:08;48.10;;;44.83;;
48588;SDS011;34369;51.174;6.738;2023-01-23T06:28:40;47.87;;;44.57;;
48588;SDS011;34369;51.174;6.738;2023-01-23T06:31:12;46.67;;;43.47;;
48588;SDS011;34369;51.174;6.738;2023-01-23T06:33:49;46.77;;;43.57;;
48588;SDS011;34369;51.174;6.738;2023-01-23T06:36:22;48.03;;;44.73;;
48588;SDS011;34369;51.174;6.738;2023-01-23T06:38:54;47.57;;;44.27;;
48588;SDS011;34369;51.174;6.738;2023-01-23T06:41:26;48.00;;;44.70;;
48588;SDS011;34369;51.174;6.738;2023-01-23T06:43:58;48.47;;;45.07;;
48588;SDS011;34369;51.174;6.738;2023-01-23T06:46:30;46.37;;;43.07;;
48588;SDS011;34369;51.174;6.738;2023-01-23T06:49:04;47.07;;;43.93;;
48588;SDS011;34369;51.174;6.738;2023-01-23T06:51:36;48.17;;;44.97;;
48588;SDS011;34369;51.174;6.738;2023-01-23T06:54:08;48.10;;;44.80;;
48588;SDS011;34369;51.174;6.738;2023-01-23T06:56:40;45.70;;;42.50;;
48588;SDS011;34369;51.174;6.738;2023-01-23T06:59:12;47.07;;;43.73;;
48588;SDS011;34369;51.174;6.738;2023-01-23T07:01:45;48.20;;;44.83;;
48588;SDS011;34369;51.174;6.738;2023-01-23T07:04:19;47.70;;;44.43;;
48588;SDS011;34369;51.174;6.738;2023-01-23T07:06:51;49.07;;;45.77;;
48588;SDS011;34369;51.174;6.738;2023-01-23T07:09:23;47.90;;;44.57;;
48588;SDS011;34369;51.174;6.738;2023-01-23T07:11:57;49.23;;;45.93;;
48588;SDS011;34369;51.174;6.738;2023-01-23T07:14:29;47.73;;;44.33;;
48588;SDS011;34369;51.174;6.738;2023-01-23T07:17:02;47.83;;;44.63;;
48588;SDS011;34369;51.174;6.738;2023-01-23T07:19:35;46.73;;;43.53;;
48588;SDS011;34369;51.174;6.738;2023-01-23T07:22:07;46.17;;;42.93;;
48588;SDS011;34369;51.174;6.738;2023-01-23T07:24:39;50.13;;;46.63;;
48588;SDS011;34369;51.174;6.738;2023-01-23T07:27:11;46.00;;;42.73;;
48588;SDS011;34369;51.174;6.738;2023-01-23T07:29:43;51.20;;;47.50;;
48588;SDS011;34369;51.174;6.738;2023-01-23T07:32:15;49.33;;;45.80;;
48588;SDS011;34369;51.174;6.738;2023-01-23T07:34:51;49.50;;;46.00;;
48588;SDS011;34369;51.174;6.738;2023-01-23T07:37:26;50.28;;;46.60;;
48588;SDS011;34369;51.174;6.738;2023-01-23T07:39:58;47.43;;;44.10;;
48588;SDS011;34369;51.174;6.738;2023-01-23T07:42:34;50.07;;;46.57;;
48588;SDS011;34369;51.174;6.738;2023-01-23T07:47:43;48.53;;;45.13;;
48588;SDS011;34369;51.174;6.738;2023-01-23T07:50:18;49.17;;;45.63;;
48588;SDS011;34369;51.174;6.738;2023-01-23T07:52:50;48.87;;;45.23;;
48588;SDS011;34369;51.174;6.738;2023-01-23T07:55:22;50.03;;;46.53;;
48588;SDS011;34369;51.174;6.738;2023-01-23T07:58:00;47.23;;;43.83;;
48588;SDS011;34369;51.174;6.738;2023-01-23T08:00:33;50.33;;;46.83;;
48588;SDS011;34369;51.174;6.738;2023-01-23T08:03:05;48.20;;;44.70;;
48588;SDS011;34369;51.174;6.738;2023-01-23T08:05:39;49.60;;;46.10;;
48588;SDS011;34369;51.174;6.738;2023-01-23T08:08:11;48.73;;;45.17;;
48588;SDS011;34369;51.174;6.738;2023-01-23T08:10:43;47.23;;;43.93;;
48588;SDS011;34369;51.174;6.738;2023-01-23T08:13:16;46.43;;;43.13;;
48588;SDS011;34369;51.174;6.738;2023-01-23T08:15:51;49.17;;;45.87;;
48588;SDS011;34369;51.174;6.738;2023-01-23T08:18:29;47.93;;;44.50;;
48588;SDS011;34369;51.174;6.738;2023-01-23T08:21:08;46.67;;;43.37;;
48588;SDS011;34369;51.174;6.738;2023-01-23T08:23:40;48.77;;;45.27;;
48588;SDS011;34369;51.174;6.738;2023-01-23T08:26:14;46.30;;;43.10;;
48588;SDS011;34369;51.174;6.738;2023-01-23T08:28:48;46.27;;;42.87;;
48588;SDS011;34369;51.174;6.738;2023-01-23T08:31:26;46.80;;;43.60;;
48588;SDS011;34369;51.174;6.738;2023-01-23T08:34:01;45.57;;;42.27;;
48588;SDS011;34369;51.174;6.738;2023-01-23T08:36:35;45.13;;;41.90;;
48588;SDS011;34369;51.174;6.738;2023-01-23T08:39:07;46.70;;;43.37;;
48588;SDS011;34369;51.174;6.738;2023-01-23T08:41:39;46.43;;;43.13;;
48588;SDS011;34369;51.174;6.738;2023-01-23T08:44:12;47.17;;;43.77;;
48588;SDS011;34369;51.174;6.738;2023-01-23T08:46:44;49.10;;;45.37;;
48588;SDS011;34369;51.174;6.738;2023-01-23T08:49:16;50.33;;;46.73;;
48588;SDS011;34369;51.174;6.738;2023-01-23T08:51:51;47.20;;;43.70;;
48588;SDS011;34369;51.174;6.738;2023-01-23T08:54:24;49.00;;;45.50;;
48588;SDS011;34369;51.174;6.738;2023-01-23T08:56:56;49.70;;;46.10;;
48588;SDS011;34369;51.174;6.738;2023-01-23T08:59:29;48.73;;;45.13;;
48588;SDS011;34369;51.174;6.738;2023-01-23T09:02:01;45.10;;;41.80;;
48588;SDS011;34369;51.174;6.738;2023-01-23T09:04:33;48.83;;;45.13;;
48588;SDS011;34369;51.174;6.738;2023-01-23T09:07:07;48.03;;;44.53;;
48588;SDS011;34369;51.174;6.738;2023-01-23T09:09:39;51.47;;;47.77;;
48588;SDS011;34369;51.174;6.738;2023-01-23T09:12:11;48.37;;;44.77;;
48588;SDS011;34369;51.174;6.738;2023-01-23T09:14:43;49.37;;;45.83;;
48588;SDS011;34369;51.174;6.738;2023-01-23T09:17:15;48.43;;;44.83;;
48588;SDS011;34369;51.174;6.738;2023-01-23T09:19:47;50.37;;;46.67;;
48588;SDS011;34369;51.174;6.738;2023-01-23T09:22:21;51.47;;;47.70;;
48588;SDS011;34369;51.174;6.738;2023-01-23T09:24:54;51.10;;;47.30;;
48588;SDS011;34369;51.174;6.738;2023-01-23T09:27:25;48.27;;;44.57;;
48588;SDS011;34369;51.174;6.738;2023-01-23T09:29:58;47.43;;;43.83;;
48588;SDS011;34369;51.174;6.738;2023-01-23T09:32:30;48.17;;;44.67;;
48588;SDS011;34369;51.174;6.738;2023-01-23T09:35:03;50.53;;;46.83;;
48588;SDS011;34369;51.174;6.738;2023-01-23T09:37:37;48.13;;;44.53;;
48588;SDS011;34369;51.174;6.738;2023-01-23T09:40:28;49.77;;;46.17;;
48588;SDS011;34369;51.174;6.738;2023-01-23T09:43:08;49.47;;;45.87;;
48588;SDS011;34369;51.174;6.738;2023-01-23T09:45:48;50.03;;;46.37;;
48588;SDS011;34369;51.174;6.738;2023-01-23T09:48:28;48.70;;;45.20;;
48588;SDS011;34369;51.174;6.738;2023-01-23T09:51:11;50.47;;;46.73;;
48588;SDS011;34369;51.174;6.738;2023-01-23T09:53:50;48.90;;;45.17;;
48588;SDS011;34369;51.174;6.738;2023-01-23T09:56:33;50.47;;;46.80;;
48588;SDS011;34369;51.174;6.738;2023-01-23T09:59:10;47.80;;;44.17;;
48588;SDS011;34369;51.174;6.738;2023-01-23T10:01:47;46.13;;;42.70;;
48588;SDS011;34369;51.174;6.738;2023-01-23T10:04:20;47.67;;;44.17;;
48588;SDS011;34369;51.174;6.738;2023-01-23T10:07:03;47.13;;;43.70;;
48588;SDS011;34369;51.174;6.738;2023-01-23T10:10:05;46.90;;;43.50;;
48588;SDS011;34369;51.174;6.738;2023-01-23T10:13:13;46.53;;;43.03;;
48588;SDS011;34369;51.174;6.738;2023-01-23T10:22:35;46.33;;;42.83;;
48588;SDS011;34369;51.174;6.738;2023-01-23T10:25:19;44.13;;;40.83;;
48588;SDS011;34369;51.174;6.738;2023-01-23T10:27:56;45.87;;;42.37;;
48588;SDS011;34369;51.174;6.738;2023-01-23T10:30:36;46.07;;;42.77;;
48588;SDS011;34369;51.174;6.738;2023-01-23T10:33:11;46.43;;;42.83;;
48588;SDS011;34369;51.174;6.738;2023-01-23T10:35:46;43.97;;;40.83;;
48588;SDS011;34369;51.174;6.738;2023-01-23T10:38:24;45.45;;;42.25;;
48588;SDS011;34369;51.174;6.738;2023-01-23T10:41:01;45.33;;;42.13;;
48588;SDS011;34369;51.174;6.738;2023-01-23T10:43:49;46.33;;;42.93;;
48588;SDS011;34369;51.174;6.738;2023-01-23T10:46:28;44.27;;;41.17;;
48588;SDS011;34369;51.174;6.738;2023-01-23T10:49:04;44.97;;;41.67;;
48588;SDS011;34369;51.174;6.738;2023-01-23T10:51:46;45.17;;;41.87;;
48588;SDS011;34369;51.174;6.738;2023-01-23T10:54:20;45.00;;;41.80;;
48588;SDS011;34369;51.174;6.738;2023-01-23T10:56:55;48.63;;;45.23;;
48588;SDS011;34369;51.174;6.738;2023-01-23T10:59:34;45.87;;;42.57;;
48588;SDS011;34369;51.174;6.738;2023-01-23T11:04:51;49.73;;;46.23;;
48588;SDS011;34369;51.174;6.738;2023-01-23T11:07:23;45.80;;;42.60;;
48588;SDS011;34369;51.174;6.738;2023-01-23T11:09:57;45.67;;;42.27;;
48588;SDS011;34369;51.174;6.738;2023-01-23T11:12:44;44.95;;;41.55;;
48588;SDS011;34369;51.174;6.738;2023-01-23T11:15:20;45.73;;;42.53;;
48588;SDS011;34369;51.174;6.738;2023-01-23T11:17:55;44.50;;;41.30;;
48588;SDS011;34369;51.174;6.738;2023-01-23T11:20:29;44.10;;;40.90;;
48588;SDS011;34369;51.174;6.738;2023-01-23T11:23:15;47.57;;;44.17;;
48588;SDS011;34369;51.174;6.738;2023-01-23T11:25:49;46.37;;;42.97;;
48588;SDS011;34369;51.174;6.738;2023-01-23T11:28:24;46.40;;;42.90;;
48588;SDS011;34369;51.174;6.738;2023-01-23T11:31:00;47.17;;;43.77;;
48588;SDS011;34369;51.174;6.738;2023-01-23T11:33:41;45.27;;;41.97;;
48588;SDS011;34369;51.174;6.738;2023-01-23T11:36:26;46.07;;;42.77;;
48588;SDS011;34369;51.174;6.738;2023-01-23T11:39:14;46.07;;;42.73;;
48588;SDS011;34369;51.174;6.738;2023-01-23T11:42:10;44.83;;;41.60;;
48588;SDS011;34369;51.174;6.738;2023-01-23T11:44:46;45.73;;;42.50;;
48588;SDS011;34369;51.174;6.738;2023-01-23T11:47:27;47.27;;;43.57;;
48588;SDS011;34369;51.174;6.738;2023-01-23T11:50:29;43.65;;;40.45;;
48588;SDS011;34369;51.174;6.738;2023-01-23T11:53:12;45.57;;;42.37;;
48588;SDS011;34369;51.174;6.738;2023-01-23T11:55:56;45.73;;;42.37;;
48588;SDS011;34369;51.174;6.738;2023-01-23T12:02:12;45.47;;;42.03;;
48588;SDS011;34369;51.174;6.738;2023-01-23T12:05:39;45.65;;;42.35;;
48588;SDS011;34369;51.174;6.738;2023-01-23T12:08:26;45.03;;;41.83;;
48588;SDS011;34369;51.174;6.738;2023-01-23T12:11:07;44.90;;;41.63;;
48588;SDS011;34369;51.174;6.738;2023-01-23T12:13:54;44.80;;;41.67;;
48588;SDS011;34369;51.174;6.738;2023-01-23T12:16:40;43.83;;;40.70;;
48588;SDS011;34369;51.174;6.738;2023-01-23T12:19:35;44.97;;;41.77;;
48588;SDS011;34369;51.174;6.738;2023-01-23T12:22:31;42.67;;;39.57;;
48588;SDS011;34369;51.174;6.738;2023-01-23T12:25:18;44.63;;;41.43;;
48588;SDS011;34369;51.174;6.738;2023-01-23T12:28:00;46.90;;;43.40;;
48588;SDS011;34369;51.174;6.738;2023-01-23T12:30:55;44.33;;;41.00;;
48588;SDS011;34369;51.174;6.738;2023-01-23T12:40:12;45.07;;;41.93;;
48588;SDS011;34369;51.174;6.738;2023-01-23T12:42:52;43.37;;;40.37;;
48588;SDS011;34369;51.174;6.738;2023-01-23T12:45:31;41.90;;;38.97;;
48588;SDS011;34369;51.174;6.738;2023-01-23T12:48:05;44.67;;;41.60;;
48588;SDS011;34369;51.174;6.738;2023-01-23T12:50:44;42.33;;;39.43;;
48588;SDS011;34369;51.174;6.738;2023-01-23T12:53:23;43.73;;;40.77;;
48588;SDS011;34369;51.174;6.738;2023-01-23T12:55:58;41.57;;;38.80;;
48588;SDS011;34369;51.174;6.738;2023-01-23T12:58:36;40.97;;;38.07;;
48588;SDS011;34369;51.174;6.738;2023-01-23T13:01:20;43.30;;;40.33;;
48588;SDS011;34369;51.174;6.738;2023-01-23T13:04:18;39.57;;;36.67;;
48588;SDS011;34369;51.174;6.738;2023-01-23T13:07:26;40.20;;;37.50;;
48588;SDS011;34369;51.174;6.738;2023-01-23T13:10:19;38.90;;;36.30;;
48588;SDS011;34369;51.174;6.738;2023-01-23T13:13:21;39.67;;;37.07;;
48588;SDS011;34369;51.174;6.738;2023-01-23T13:16:01;41.33;;;38.63;;
48588;SDS011;34369;51.174;6.738;2023-01-23T13:18:50;40.35;;;37.55;;
48588;SDS011;34369;51.174;6.738;2023-01-23T13:22:00;39.70;;;37.10;;
48588;SDS011;34369;51.174;6.738;2023-01-23T13:24:42;39.73;;;37.13;;
48588;SDS011;34369;51.174;6.738;2023-01-23T13:36:30;39.77;;;37.07;;
48588;SDS011;34369;51.174;6.738;2023-01-23T13:45:21;41.07;;;38.37;;
48588;SDS011;34369;51.174;6.738;2023-01-23T13:51:33;39.37;;;36.77;;
48588;SDS011;34369;51.174;6.738;2023-01-23T13:54:12;40.70;;;38.10;;
48588;SDS011;34369;51.174;6.738;2023-01-23T13:57:07;39.43;;;36.93;;
48588;SDS011;34369;51.174;6.738;2023-01-23T13:59:40;39.43;;;36.87;;
48588;SDS011;34369;51.174;6.738;2023-01-23T14:02:18;39.40;;;36.83;;
48588;SDS011;34369;51.174;6.738;2023-01-23T14:05:13;41.92;;;39.20;;
48588;SDS011;34369;51.174;6.738;2023-01-23T14:07:59;40.00;;;37.40;;
48588;SDS011;34369;51.174;6.738;2023-01-23T14:10:35;40.83;;;38.17;;
48588;SDS011;34369;51.174;6.738;2023-01-23T14:13:09;42.23;;;39.43;;
48588;SDS011;34369;51.174;6.738;2023-01-23T14:15:45;40.17;;;37.57;;
48588;SDS011;34369;51.174;6.738;2023-01-23T14:18:42;38.87;;;36.30;;
48588;SDS011;34369;51.174;6.738;2023-01-23T14:21:18;40.53;;;37.93;;
48588;SDS011;34369;51.174;6.738;2023-01-23T14:23:54;40.47;;;37.67;;
48588;SDS011;34369;51.174;6.738;2023-01-23T14:26:31;40.75;;;38.05;;
48588;SDS011;34369;51.174;6.738;2023-01-23T14:29:18;41.53;;;38.83;;
48588;SDS011;34369;51.174;6.738;2023-01-23T14:31:53;42.93;;;40.03;;
48588;SDS011;34369;51.174;6.738;2023-01-23T14:34:27;40.87;;;38.17;;
48588;SDS011;34369;51.174;6.738;2023-01-23T14:37:01;38.90;;;36.30;;
48588;SDS011;34369;51.174;6.738;2023-01-23T14:39:37;41.97;;;39.07;;
48588;SDS011;34369;51.174;6.738;2023-01-23T14:42:17;42.37;;;39.50;;
48588;SDS011;34369;51.174;6.738;2023-01-23T14:44:55;44.63;;;41.67;;
48588;SDS011;34369;51.174;6.738;2023-01-23T14:47:32;42.17;;;39.38;;
48588;SDS011;34369;51.174;6.738;2023-01-23T14:50:15;41.70;;;39.00;;
48588;SDS011;34369;51.174;6.738;2023-01-23T14:52:55;42.07;;;39.17;;
48588;SDS011;34369;51.174;6.738;2023-01-23T14:55:30;41.10;;;38.30;;
48588;SDS011;34369;51.174;6.738;2023-01-23T15:00:46;43.13;;;40.33;;
48588;SDS011;34369;51.174;6.738;2023-01-23T15:03:32;42.07;;;39.27;;
48588;SDS011;34369;51.174;6.738;2023-01-23T15:06:12;42.03;;;39.23;;
48588;SDS011;34369;51.174;6.738;2023-01-23T15:08:50;43.73;;;40.83;;
48588;SDS011;34369;51.174;6.738;2023-01-23T15:11:23;43.97;;;41.13;;
48588;SDS011;34369;51.174;6.738;2023-01-23T15:14:01;42.23;;;39.47;;
48588;SDS011;34369;51.174;6.738;2023-01-23T15:16:34;43.03;;;40.23;;
48588;SDS011;34369;51.174;6.738;2023-01-23T15:19:16;43.37;;;40.47;;
48588;SDS011;34369;51.174;6.738;2023-01-23T15:22:04;42.17;;;39.27;;
48588;SDS011;34369;51.174;6.738;2023-01-23T15:24:48;43.30;;;40.43;;
48588;SDS011;34369;51.174;6.738;2023-01-23T15:27:22;45.80;;;42.87;;
48588;SDS011;34369;51.174;6.738;2023-01-23T15:33:21;44.67;;;41.80;;
48588;SDS011;34369;51.174;6.738;2023-01-23T15:36:01;44.57;;;41.57;;
48588;SDS011;34369;51.174;6.738;2023-01-23T15:38:36;44.53;;;41.37;;
48588;SDS011;34369;51.174;6.738;2023-01-23T15:41:08;43.87;;;40.97;;
48588;SDS011;34369;51.174;6.738;2023-01-23T15:43:41;41.77;;;38.97;;
48588;SDS011;34369;51.174;6.738;2023-01-23T15:46:15;44.63;;;41.63;;
48588;SDS011;34369;51.174;6.738;2023-01-23T15:48:47;46.73;;;43.63;;
48588;SDS011;34369;51.174;6.738;2023-01-23T15:51:20;43.17;;;40.23;;
48588;SDS011;34369;51.174;6.738;2023-01-23T15:53:53;41.07;;;38.20;;
48588;SDS011;34369;51.174;6.738;2023-01-23T15:56:26;44.13;;;41.13;;
48588;SDS011;34369;51.174;6.738;2023-01-23T15:59:01;42.73;;;39.80;;
48588;SDS011;34369;51.174;6.738;2023-01-23T16:01:35;42.53;;;39.63;;
48588;SDS011;34369;51.174;6.738;2023-01-23T16:04:07;46.33;;;43.23;;